This is the latest recevied weather packets stored in our database for station/object NK7E-2. If no packets are shown the sender has not sent any weather packets the latest 1 day(s).
| Time | Temp. | Humidity | Pressure | Rain* | Wind** | Luminosity | Snow |
|---|---|---|---|---|---|---|---|
| 1778043917 | 16.11° C | 41% | 1019.4 hPa | 0 mm | - | - | - |
| 1778043317 | 16.11° C | 41% | 1019.4 hPa | 0 mm | - | - | - |
| 1778042717 | 16.11° C | 41% | 1019.1 hPa | 0 mm | - | - | - |
| 1778042117 | 16.67° C | 40% | 1019.2 hPa | 0 mm | - | - | - |
| 1778041517 | 16.67° C | 40% | 1019 hPa | 0 mm | - | - | - |
| 1778040917 | 16.67° C | 40% | 1018.8 hPa | 0 mm | - | - | - |
| 1778040317 | 16.67° C | 40% | 1018.6 hPa | 0 mm | - | - | - |
| 1778039717 | 17.22° C | 41% | 1018.5 hPa | 0 mm | - | - | - |
| 1778039117 | 17.22° C | 40% | 1018.3 hPa | 0 mm | - | - | - |
| 1778038517 | 17.22° C | 40% | 1018.3 hPa | 0 mm | - | - | - |
| 1778037917 | 17.22° C | 39% | 1018.2 hPa | 0 mm | - | - | - |
| 1778037317 | 17.78° C | 39% | 1018.3 hPa | 0 mm | - | - | - |
| 1778036717 | 18.33° C | 36% | 1017.9 hPa | 0 mm | - | - | - |
| 1778036117 | 18.33° C | 35% | 1017.7 hPa | 0 mm | - | - | - |
| 1778035517 | 18.33° C | 36% | 1017.5 hPa | 0 mm | - | - | - |
| 1778034917 | 18.33° C | 36% | 1017.5 hPa | 0 mm | - | - | - |
| 1778034317 | 18.33° C | 36% | 1016.8 hPa | 0 mm | - | - | - |
| 1778033717 | 18.89° C | 36% | 1017 hPa | 0 mm | - | - | - |
| 1778033117 | 18.89° C | 36% | 1016.8 hPa | 0 mm | - | - | - |
| 1778032517 | 19.44° C | 36% | 1016.4 hPa | 0 mm | - | - | - |
| 1778031917 | 19.44° C | 36% | 1016.6 hPa | 0 mm | - | - | - |
| 1778030717 | 20.56° C | 33% | 1016.6 hPa | 0 mm | - | - | - |
| 1778024117 | 22.22° C | 26% | 1016.8 hPa | 0 mm | - | - | - |
| 1778015716 | 22.22° C | 35% | 1017.3 hPa | 0 mm | - | - | - |
* Rain latest hour (hover to see other rain measurements)
** Current wind speed in m/s (hover to see current wind gust speed)